Forside
METAR-TAF:

METAR-TAF

Lufthavne :

Vientiane, Laos

Breddekreds: 17-57N, længdekreds: 102-34E, højde: 171 m

Aktuelle vejr

Denne rapport blev lavet for 41 minutter siden, kl. 16:30 UTC
Vind 2 kt fra sydvest
Temperatur 25°C
Fugtighed 100%
Tryk 1007 hPa
Sigt: 4000 m
Spredte skyer i en højde af 4000 ft
Brudte skyer i en højde af 8300 ft
dis

METAR: VLVT 251630Z 22002KT 4000 BR SCT040 BKN083 25/25 Q1007 NOSIG

Tid: 00:11 (17:11 UTC)

Vejrudsigter

Denne rapport blev lavet for 6 timer og 11 minutter siden, kl. 11:00 UTC
Foreløbig gælder fra 25 på 12 UTC til 26 på 12 UTC
Vind 4 kt fra vestsydvest
Sigt: 7000 m
Spredte skyer i en højde af 1600 ft
Brudte skyer i en højde af 8300 ft
Midlertidig
fra 25 på 14 UTC til 25 på 20 UTC
Sigt: 4000 m
Spredte skyer i en højde af 1000 ft
regn

TAF: VLVT 251100Z 2512/2612 24004KT 7000 SCT016 BKN083 TEMPO 2514/2520 4000 RA SCT010 BKN83

Vejrobservationer og prognoser fra mere end 4000 lufthavne (METAR og TAF).

De gule og røde prikker repræsenterer de meteorologiske stationer.

Flyt musen over at se navnet på stationen.

Så klik over at se vejr observationer og prognoser.

At skifte det kort: Klik på de grønne knapper med et sort kors for at zoome ind; på den grønne knap med en bindestreg for at zoome ud; eller på de grønne pile for tilstødende kort.


METAR-TAF: